createdAt,value
2022-08-12T00:00:27.243Z,21.15
2022-08-12T00:02:04.438Z,21.13
2022-08-12T00:02:30.008Z,21.12
2022-08-12T00:03:27.286Z,21.12
2022-08-12T00:04:27.182Z,21.11
2022-08-12T00:05:27.180Z,21.11
2022-08-12T00:06:27.170Z,21.06
2022-08-12T00:07:27.154Z,21.05
2022-08-12T00:08:28.530Z,21.03
2022-08-12T00:09:28.135Z,21.01
2022-08-12T00:10:27.163Z,21.00
2022-08-12T00:11:27.123Z,21.00
2022-08-12T00:12:27.086Z,20.98
2022-08-12T00:13:27.110Z,20.96
2022-08-12T00:14:27.053Z,20.96
2022-08-12T00:15:27.053Z,20.94
2022-08-12T00:16:27.060Z,20.93
2022-08-12T00:17:27.043Z,20.91
2022-08-12T00:18:27.019Z,20.87
2022-08-12T00:19:27.012Z,20.83
2022-08-12T00:20:29.821Z,20.83
2022-08-12T00:21:26.985Z,20.82
2022-08-12T00:22:26.971Z,20.82
2022-08-12T00:23:26.962Z,20.83
2022-08-12T00:24:26.932Z,20.82
2022-08-12T00:25:55.754Z,20.82
2022-08-12T00:26:27.921Z,20.81
2022-08-12T00:27:27.569Z,20.76
2022-08-12T00:28:27.913Z,20.75
2022-08-12T00:29:26.872Z,20.73
2022-08-12T00:30:26.877Z,20.72
2022-08-12T00:31:26.883Z,20.68
2022-08-12T00:32:35.060Z,20.64
2022-08-12T00:33:38.513Z,20.61
2022-08-12T00:34:27.811Z,20.63
2022-08-12T00:35:36.607Z,20.61
2022-08-12T00:36:35.006Z,20.60
2022-08-12T00:37:27.783Z,20.56
2022-08-12T00:38:26.958Z,20.56
2022-08-12T00:39:26.802Z,20.54
2022-08-12T00:40:26.788Z,20.53
2022-08-12T00:41:26.719Z,20.50
2022-08-12T00:42:26.712Z,20.46
2022-08-12T00:43:26.721Z,20.44
2022-08-12T00:44:26.698Z,20.41
2022-08-12T00:45:26.675Z,20.42
2022-08-12T00:46:26.669Z,20.46
2022-08-12T00:47:26.663Z,20.44
2022-08-12T00:48:26.700Z,20.44
2022-08-12T00:49:26.620Z,20.44
2022-08-12T00:50:26.610Z,20.44
2022-08-12T00:51:26.600Z,20.41
2022-08-12T00:52:26.570Z,20.35
2022-08-12T00:53:26.568Z,20.33
2022-08-12T00:54:26.560Z,20.34
2022-08-12T00:55:27.539Z,20.31
2022-08-12T00:56:26.529Z,20.31
2022-08-12T00:57:26.530Z,20.33
2022-08-12T00:58:26.501Z,20.30
2022-08-12T00:59:26.486Z,20.27
2022-08-12T01:00:26.479Z,20.27
2022-08-12T01:01:26.506Z,20.26
2022-08-12T01:02:26.464Z,20.25
2022-08-12T01:03:26.429Z,20.25
2022-08-12T01:04:26.426Z,20.20
2022-08-12T01:05:26.427Z,20.19
2022-08-12T01:06:26.410Z,20.17
2022-08-12T01:07:26.386Z,20.15
2022-08-12T01:08:26.368Z,20.15
2022-08-12T01:09:26.367Z,20.12
2022-08-12T01:10:29.489Z,20.10
2022-08-12T01:11:27.337Z,20.08
2022-08-12T01:12:26.327Z,20.05
2022-08-12T01:13:26.300Z,20.04
2022-08-12T01:14:26.297Z,20.01
2022-08-12T01:15:26.290Z,20.00
2022-08-12T01:16:26.277Z,19.98
2022-08-12T01:17:26.282Z,19.95
2022-08-12T01:18:26.240Z,19.95
2022-08-12T01:19:26.236Z,19.94
2022-08-12T01:20:26.240Z,19.97
2022-08-12T01:21:26.202Z,19.95
2022-08-12T01:22:26.198Z,19.94
2022-08-12T01:23:26.177Z,19.94
2022-08-12T01:24:31.417Z,19.94
2022-08-12T01:25:27.151Z,19.92
2022-08-12T01:26:26.131Z,19.92
2022-08-12T01:27:26.118Z,19.92
2022-08-12T01:28:26.103Z,19.90
2022-08-12T01:29:26.095Z,19.92
2022-08-12T01:30:26.088Z,19.86
2022-08-12T01:31:26.056Z,19.85
2022-08-12T01:32:26.058Z,19.85
2022-08-12T01:33:26.043Z,19.83
2022-08-12T01:34:36.040Z,19.83
2022-08-12T01:35:27.024Z,19.82
2022-08-12T01:36:26.003Z,19.82
2022-08-12T01:37:25.997Z,19.80
2022-08-12T01:38:29.953Z,19.80
2022-08-12T01:39:26.027Z,19.76
2022-08-12T01:40:33.785Z,19.75
2022-08-12T01:41:26.968Z,19.72
2022-08-12T01:42:25.939Z,19.72
2022-08-12T01:43:25.911Z,19.72
2022-08-12T01:44:25.905Z,19.70
2022-08-12T01:45:25.884Z,19.68
2022-08-12T01:46:25.878Z,19.65
2022-08-12T01:47:25.915Z,19.64
2022-08-12T01:48:25.840Z,19.67
2022-08-12T01:49:25.833Z,19.65
2022-08-12T01:50:25.823Z,19.65
2022-08-12T01:52:21.120Z,19.67
2022-08-12T01:52:26.794Z,19.68
2022-08-12T01:53:25.776Z,19.67
2022-08-12T01:54:25.774Z,19.65
2022-08-12T01:55:25.753Z,19.62
2022-08-12T01:56:25.944Z,19.58
2022-08-12T01:57:59.209Z,19.58
2022-08-12T01:58:26.702Z,19.58
2022-08-12T01:59:25.703Z,19.57
2022-08-12T02:00:35.630Z,19.55
2022-08-12T02:01:26.718Z,19.53
2022-08-12T02:02:25.652Z,19.57
2022-08-12T02:03:25.645Z,19.55
2022-08-12T02:04:25.645Z,19.53
2022-08-12T02:05:25.611Z,19.52
2022-08-12T02:06:25.606Z,19.52
2022-08-12T02:07:25.604Z,19.50
2022-08-12T02:08:25.583Z,19.52
2022-08-12T02:09:25.574Z,19.50
2022-08-12T02:10:50.672Z,19.50
2022-08-12T02:11:26.540Z,19.52
2022-08-12T02:12:28.561Z,19.49
2022-08-12T02:13:48.115Z,19.46
2022-08-12T02:14:26.525Z,19.45
2022-08-12T02:15:25.493Z,19.43
2022-08-12T02:16:25.481Z,19.42
2022-08-12T02:17:55.436Z,19.40
2022-08-12T02:18:26.506Z,19.40
2022-08-12T02:19:25.446Z,19.39
2022-08-12T02:20:25.442Z,19.39
2022-08-12T02:21:26.411Z,19.39
2022-08-12T02:22:25.452Z,19.38
2022-08-12T02:23:25.389Z,19.35
2022-08-12T02:24:25.382Z,19.35
2022-08-12T02:25:25.352Z,19.34
2022-08-12T02:26:25.342Z,19.34
2022-08-12T02:27:25.330Z,19.28
2022-08-12T02:28:25.321Z,19.28
2022-08-12T02:29:25.301Z,19.32
2022-08-12T02:30:25.300Z,19.30
2022-08-12T02:31:26.308Z,19.28
2022-08-12T02:32:25.261Z,19.27
2022-08-12T02:33:25.256Z,19.28
2022-08-12T02:34:25.259Z,19.27
2022-08-12T02:35:25.223Z,19.27
2022-08-12T02:36:25.222Z,19.27
2022-08-12T02:37:25.198Z,19.25
2022-08-12T02:38:25.201Z,19.21
2022-08-12T02:39:25.236Z,19.20
2022-08-12T02:40:25.150Z,19.17
2022-08-12T02:41:25.140Z,19.17
2022-08-12T02:42:25.129Z,19.13
2022-08-12T02:43:25.230Z,19.12
2022-08-12T02:44:25.128Z,19.12
2022-08-12T02:45:25.091Z,19.15
2022-08-12T02:46:25.081Z,19.15
2022-08-12T02:47:58.549Z,19.15
2022-08-12T02:48:26.069Z,19.12
2022-08-12T02:49:25.049Z,19.07
2022-08-12T02:50:25.029Z,19.06
2022-08-12T02:51:25.014Z,19.06
2022-08-12T02:52:25.030Z,19.06
2022-08-12T02:53:24.989Z,19.06
2022-08-12T02:54:24.988Z,19.07
2022-08-12T02:55:34.268Z,19.09
2022-08-12T02:56:25.955Z,19.06
2022-08-12T02:57:24.932Z,19.07
2022-08-12T02:58:25.194Z,19.06
2022-08-12T02:59:25.927Z,19.01
2022-08-12T03:00:24.900Z,18.99
2022-08-12T03:01:25.090Z,18.99
2022-08-12T03:02:24.888Z,18.97
2022-08-12T03:03:24.880Z,18.96
2022-08-12T03:04:24.852Z,18.94
2022-08-12T03:05:25.067Z,18.91
2022-08-12T03:06:24.827Z,18.89
2022-08-12T03:07:27.793Z,18.90
2022-08-12T03:08:31.879Z,18.90
2022-08-12T03:09:26.709Z,18.90
2022-08-12T03:10:37.740Z,18.89
2022-08-12T03:11:25.778Z,18.90
2022-08-12T03:12:24.750Z,18.89
2022-08-12T03:13:24.725Z,18.91
2022-08-12T03:14:24.757Z,18.91
2022-08-12T03:15:24.717Z,18.91
2022-08-12T03:16:24.715Z,18.91
2022-08-12T03:17:24.678Z,18.94
2022-08-12T03:18:28.452Z,18.93
2022-08-12T03:19:24.689Z,18.94
2022-08-12T03:20:28.405Z,18.93
2022-08-12T03:21:57.958Z,18.89
2022-08-12T03:22:25.604Z,18.89
2022-08-12T03:23:29.815Z,18.86
2022-08-12T03:24:25.589Z,18.86
2022-08-12T03:25:24.555Z,18.86
2022-08-12T03:26:24.554Z,18.83
2022-08-12T03:27:24.556Z,18.83
2022-08-12T03:28:24.527Z,18.87
2022-08-12T03:29:24.514Z,18.89
2022-08-12T03:30:24.513Z,18.87
2022-08-12T03:31:24.487Z,18.84
2022-08-12T03:32:35.065Z,18.86
2022-08-12T03:33:25.464Z,18.86
2022-08-12T03:34:24.457Z,18.83
2022-08-12T03:35:40.208Z,18.79
2022-08-12T03:36:25.432Z,18.79
2022-08-12T03:37:24.430Z,18.76
2022-08-12T03:38:24.398Z,18.74
2022-08-12T03:39:35.795Z,18.72
2022-08-12T03:40:25.375Z,18.72
2022-08-12T03:41:24.365Z,18.72
2022-08-12T03:42:24.366Z,18.74
2022-08-12T03:43:24.364Z,18.75
2022-08-12T03:44:25.746Z,18.75
2022-08-12T03:45:24.314Z,18.75
2022-08-12T03:46:24.294Z,18.75
2022-08-12T03:47:25.475Z,18.75
2022-08-12T03:48:24.264Z,18.74
2022-08-12T03:49:24.254Z,18.74
2022-08-12T03:50:24.255Z,18.74
2022-08-12T03:51:24.235Z,18.71
2022-08-12T03:52:24.212Z,18.66
2022-08-12T03:53:24.277Z,18.66
2022-08-12T03:54:24.196Z,18.66
2022-08-12T03:55:24.177Z,18.68
2022-08-12T03:56:24.164Z,18.68
2022-08-12T03:57:24.155Z,18.72
2022-08-12T03:58:24.142Z,18.72
2022-08-12T03:59:24.121Z,18.75
2022-08-12T04:00:24.557Z,18.76
2022-08-12T04:01:24.157Z,18.75
2022-08-12T04:02:24.084Z,18.72
2022-08-12T04:03:24.315Z,18.74
2022-08-12T04:04:24.076Z,18.72
2022-08-12T04:05:24.045Z,18.75
2022-08-12T04:06:34.979Z,18.79
2022-08-12T04:07:25.021Z,18.83
2022-08-12T04:08:24.016Z,18.84
2022-08-12T04:09:24.004Z,18.83
2022-08-12T04:10:24.063Z,18.84
2022-08-12T04:11:24.009Z,18.84
2022-08-12T04:12:24.623Z,18.84
2022-08-12T04:13:24.029Z,18.84
2022-08-12T04:14:23.929Z,18.82
2022-08-12T04:15:23.913Z,18.86
2022-08-12T04:16:23.914Z,18.83
2022-08-12T04:17:23.881Z,18.79
2022-08-12T04:18:23.883Z,18.82
2022-08-12T04:19:23.882Z,18.82
2022-08-12T04:20:23.852Z,18.79
2022-08-12T04:21:25.850Z,18.78
2022-08-12T04:22:23.831Z,18.83
2022-08-12T04:23:23.835Z,18.86
2022-08-12T04:24:23.802Z,18.87
2022-08-12T04:25:23.790Z,18.91
2022-08-12T04:26:23.772Z,18.96
2022-08-12T04:27:23.760Z,18.94
2022-08-12T04:28:23.769Z,18.99
2022-08-12T04:30:31.436Z,19.01
2022-08-12T04:30:32.332Z,19.02
2022-08-12T04:31:24.711Z,19.02
2022-08-12T04:32:23.692Z,19.05
2022-08-12T04:33:23.702Z,19.07
2022-08-12T04:34:23.672Z,19.07
2022-08-12T04:35:23.658Z,19.07
2022-08-12T04:36:23.648Z,19.05
2022-08-12T04:37:23.637Z,19.07
2022-08-12T04:38:23.642Z,19.07
2022-08-12T04:39:23.636Z,19.10
2022-08-12T04:40:28.075Z,19.12
2022-08-12T04:41:24.569Z,19.16
2022-08-12T04:42:23.569Z,19.16
2022-08-12T04:44:00.528Z,19.23
2022-08-12T04:44:24.540Z,19.24
2022-08-12T04:45:23.529Z,19.25
2022-08-12T04:46:26.397Z,19.24
2022-08-12T04:47:24.499Z,19.25
2022-08-12T04:48:23.590Z,19.31
2022-08-12T04:49:23.471Z,19.34
2022-08-12T04:50:27.240Z,19.39
2022-08-12T04:51:24.450Z,19.43
2022-08-12T04:52:23.459Z,19.43
2022-08-12T04:53:23.430Z,19.45
2022-08-12T04:54:23.420Z,19.47
2022-08-12T04:55:23.398Z,19.52
2022-08-12T04:56:23.392Z,19.55
2022-08-12T04:57:23.372Z,19.57
2022-08-12T04:58:29.934Z,19.60
2022-08-12T04:59:24.340Z,19.61
2022-08-12T05:00:23.368Z,19.62
2022-08-12T05:01:23.312Z,19.62
2022-08-12T05:02:23.356Z,19.67
2022-08-12T05:03:23.300Z,19.68
2022-08-12T05:04:23.317Z,19.67
2022-08-12T05:05:23.275Z,19.67
2022-08-12T05:06:26.704Z,19.72
2022-08-12T05:07:23.226Z,19.75
2022-08-12T05:08:23.232Z,19.78
2022-08-12T05:09:23.218Z,19.79
2022-08-12T05:10:33.154Z,19.82
2022-08-12T05:11:24.188Z,19.83
2022-08-12T05:12:23.167Z,19.85
2022-08-12T05:13:23.178Z,19.85
2022-08-12T05:14:23.138Z,19.83
2022-08-12T05:15:29.485Z,19.85
2022-08-12T05:16:32.617Z,19.90
2022-08-12T05:17:24.107Z,19.95
2022-08-12T05:18:23.096Z,19.95
2022-08-12T05:19:23.111Z,19.98
2022-08-12T05:20:23.073Z,19.98
2022-08-12T05:21:23.065Z,20.02
2022-08-12T05:22:23.042Z,20.05
2022-08-12T05:23:23.046Z,20.10
2022-08-12T05:24:23.008Z,20.17
2022-08-12T05:25:23.007Z,20.17
2022-08-12T05:26:23.008Z,20.16
2022-08-12T05:27:23.080Z,20.15
2022-08-12T05:28:22.956Z,20.20
2022-08-12T05:30:06.334Z,20.23
2022-08-12T05:30:23.943Z,20.26
2022-08-12T05:31:47.551Z,20.25
2022-08-12T05:32:23.913Z,20.25
2022-08-12T05:33:22.917Z,20.27
2022-08-12T05:34:26.653Z,20.33
2022-08-12T05:35:22.869Z,20.33
2022-08-12T05:36:22.867Z,20.33
2022-08-12T05:37:22.845Z,20.37
2022-08-12T05:38:22.892Z,20.37
2022-08-12T05:39:22.900Z,20.40
2022-08-12T05:40:22.813Z,20.41
2022-08-12T05:41:22.801Z,20.42
2022-08-12T05:42:22.790Z,20.42
2022-08-12T05:43:23.784Z,20.44
2022-08-12T05:44:22.746Z,20.51
2022-08-12T05:45:22.755Z,20.54
2022-08-12T05:46:22.714Z,20.57
2022-08-12T05:47:22.717Z,20.63
2022-08-12T05:48:23.724Z,20.63
2022-08-12T05:49:22.730Z,20.68
2022-08-12T05:50:22.675Z,20.72
2022-08-12T05:51:22.664Z,20.75
2022-08-12T05:52:23.665Z,20.78
2022-08-12T05:53:22.655Z,20.81
2022-08-12T05:54:41.147Z,20.85
2022-08-12T05:55:26.954Z,20.83
2022-08-12T05:56:23.613Z,20.85
2022-08-12T05:57:22.594Z,20.91
2022-08-12T05:58:22.566Z,20.93
2022-08-12T05:59:22.555Z,20.96
2022-08-12T06:00:29.577Z,21.00
2022-08-12T06:02:09.493Z,21.08
2022-08-12T06:02:23.516Z,21.09
2022-08-12T06:03:24.380Z,21.12
2022-08-12T06:04:22.496Z,21.18
2022-08-12T06:05:22.487Z,21.19
2022-08-12T06:06:22.475Z,21.21
2022-08-12T06:08:00.331Z,21.19
2022-08-12T06:08:23.468Z,21.22
2022-08-12T06:09:22.591Z,21.28
2022-08-12T06:10:32.070Z,21.31
2022-08-12T06:11:23.405Z,21.37
2022-08-12T06:12:22.383Z,21.46
2022-08-12T06:13:28.920Z,21.53
2022-08-12T06:14:24.226Z,21.56
2022-08-12T06:15:22.374Z,21.63
2022-08-12T06:16:22.335Z,21.64
2022-08-12T06:17:22.326Z,21.68
2022-08-12T06:18:25.371Z,21.71
2022-08-12T06:19:23.297Z,21.77
2022-08-12T06:20:28.796Z,21.81
2022-08-12T06:21:23.284Z,21.82
2022-08-12T06:22:22.244Z,21.86
2022-08-12T06:23:22.256Z,21.91
2022-08-12T06:24:22.229Z,21.98
2022-08-12T06:25:22.355Z,21.99
2022-08-12T06:26:22.215Z,22.01
2022-08-12T06:27:22.186Z,22.08
2022-08-12T06:28:22.164Z,22.09
2022-08-12T06:29:35.845Z,22.12
2022-08-12T06:30:33.502Z,22.15
2022-08-12T06:31:26.109Z,22.20
2022-08-12T06:32:22.133Z,22.27
2022-08-12T06:33:24.954Z,22.31
2022-08-12T06:35:23.376Z,22.38
2022-08-12T06:35:47.931Z,22.42
2022-08-12T06:36:23.118Z,22.45
2022-08-12T06:37:22.056Z,22.51
2022-08-12T06:38:22.074Z,22.54
2022-08-12T06:39:22.096Z,22.57
2022-08-12T06:40:22.033Z,22.63
2022-08-12T06:41:22.034Z,22.74
2022-08-12T06:42:31.774Z,22.76
2022-08-12T06:43:23.014Z,22.79
2022-08-12T06:44:21.966Z,22.85
2022-08-12T06:45:21.968Z,22.85
2022-08-12T06:46:21.939Z,22.89
2022-08-12T06:47:21.973Z,22.93
2022-08-12T06:48:21.919Z,22.94
2022-08-12T06:49:21.915Z,23.00
2022-08-12T06:50:21.908Z,23.03
2022-08-12T06:51:21.873Z,23.07
2022-08-12T06:52:21.855Z,23.14
2022-08-12T06:53:21.875Z,23.18
2022-08-12T06:54:31.623Z,23.21
2022-08-12T06:55:22.833Z,23.23
2022-08-12T06:56:27.358Z,23.25
2022-08-12T06:57:57.861Z,23.29
2022-08-12T06:58:22.784Z,23.34
2022-08-12T06:59:21.776Z,23.38
2022-08-12T07:00:21.766Z,23.42
2022-08-12T07:01:22.856Z,23.50
2022-08-12T07:02:21.843Z,23.57
2022-08-12T07:03:23.140Z,23.64
2022-08-12T07:04:38.759Z,23.68
2022-08-12T07:05:22.734Z,23.69
2022-08-12T07:06:21.685Z,23.74
2022-08-12T07:07:21.846Z,23.82
2022-08-12T07:08:21.653Z,23.89
2022-08-12T07:10:03.823Z,23.96
2022-08-12T07:10:22.636Z,23.99
2022-08-12T07:11:21.655Z,24.05
2022-08-12T07:12:21.601Z,24.08
2022-08-12T07:13:21.612Z,24.11
2022-08-12T07:14:21.562Z,24.15
2022-08-12T07:15:21.562Z,24.21
2022-08-12T07:16:21.559Z,24.26
2022-08-12T07:17:21.708Z,24.24
2022-08-12T07:18:21.535Z,24.24
2022-08-12T07:19:21.522Z,24.29
2022-08-12T07:20:50.845Z,24.30
2022-08-12T07:21:22.491Z,24.30
2022-08-12T07:22:21.478Z,24.30
2022-08-12T07:23:21.481Z,24.30
2022-08-12T07:24:21.460Z,24.36
2022-08-12T07:25:21.444Z,24.39
2022-08-12T07:26:21.474Z,24.42
2022-08-12T07:27:21.423Z,24.45
2022-08-12T07:28:21.404Z,24.46
2022-08-12T07:29:21.391Z,24.51
2022-08-12T07:30:21.404Z,24.55
2022-08-12T07:31:21.403Z,24.60
2022-08-12T07:32:21.340Z,24.74
2022-08-12T07:33:21.440Z,24.82
2022-08-12T07:34:21.313Z,24.87
2022-08-12T07:35:21.312Z,24.93
2022-08-12T07:36:21.318Z,24.97
2022-08-12T07:37:21.406Z,24.93
2022-08-12T07:38:29.711Z,24.99
2022-08-12T07:39:22.294Z,25.01
2022-08-12T07:40:21.262Z,24.99
2022-08-12T07:41:21.244Z,25.01
2022-08-12T07:42:21.241Z,25.04
2022-08-12T07:43:21.232Z,25.04
2022-08-12T07:44:21.188Z,25.04
2022-08-12T07:45:21.211Z,25.08
2022-08-12T07:46:21.176Z,25.09
2022-08-12T07:47:21.160Z,25.12
2022-08-12T07:48:21.145Z,25.09
2022-08-12T07:49:21.154Z,25.05
2022-08-12T07:50:23.814Z,25.04
2022-08-12T07:51:25.182Z,25.05
2022-08-12T07:52:21.104Z,25.09
2022-08-12T07:53:21.091Z,25.14
2022-08-12T07:54:21.061Z,25.16
2022-08-12T07:55:21.051Z,25.16
2022-08-12T07:56:21.042Z,25.17
2022-08-12T07:57:21.137Z,25.17
2022-08-12T07:58:21.025Z,25.20
2022-08-12T07:59:21.001Z,25.22
2022-08-12T08:00:21.064Z,25.22
2022-08-12T08:01:21.097Z,25.27
2022-08-12T08:02:20.971Z,25.30
2022-08-12T08:03:21.967Z,25.36
2022-08-12T08:04:20.926Z,25.42
2022-08-12T08:05:20.918Z,25.39
2022-08-12T08:06:20.902Z,25.39
2022-08-12T08:07:20.913Z,25.45
2022-08-12T08:08:20.871Z,25.48
2022-08-12T08:09:20.861Z,25.57
2022-08-12T08:10:20.941Z,25.64
2022-08-12T08:11:20.838Z,25.67
2022-08-12T08:12:20.845Z,25.60
2022-08-12T08:13:21.001Z,25.57
2022-08-12T08:14:20.793Z,25.57
2022-08-12T08:15:21.024Z,25.56
2022-08-12T08:16:20.790Z,25.56
2022-08-12T08:17:20.768Z,25.61
2022-08-12T08:18:25.792Z,25.64
2022-08-12T08:19:21.724Z,25.67
2022-08-12T08:20:20.733Z,25.72
2022-08-12T08:21:20.722Z,25.78
2022-08-12T08:22:33.391Z,25.76
2022-08-12T08:23:21.825Z,25.83
2022-08-12T08:24:21.672Z,25.90
2022-08-12T08:25:36.126Z,25.93
2022-08-12T08:26:21.684Z,25.96
2022-08-12T08:27:20.657Z,26.01
2022-08-12T08:28:20.613Z,26.04
2022-08-12T08:29:20.620Z,26.03
2022-08-12T08:30:20.648Z,26.06
2022-08-12T08:31:20.598Z,26.04
2022-08-12T08:32:20.575Z,26.04
2022-08-12T08:33:22.611Z,26.01
2022-08-12T08:34:33.514Z,25.97
2022-08-12T08:35:21.522Z,26.04
2022-08-12T08:36:23.864Z,26.08
2022-08-12T08:37:20.652Z,26.09
2022-08-12T08:38:31.754Z,26.13
2022-08-12T08:39:21.564Z,26.17
2022-08-12T08:40:20.467Z,26.27
2022-08-12T08:42:16.790Z,26.34
2022-08-12T08:42:21.450Z,26.41
2022-08-12T08:43:20.454Z,26.38
2022-08-12T08:44:20.425Z,26.32
2022-08-12T08:45:20.411Z,26.29
2022-08-12T08:46:20.394Z,26.24
2022-08-12T08:47:20.449Z,26.23
2022-08-12T08:48:20.382Z,26.28
2022-08-12T08:49:20.362Z,26.34
2022-08-12T08:50:20.349Z,26.29
2022-08-12T08:51:20.368Z,26.27
2022-08-12T08:52:39.429Z,26.24
2022-08-12T08:53:21.329Z,26.27
2022-08-12T08:54:20.280Z,26.28
2022-08-12T08:55:27.403Z,26.31
2022-08-12T08:56:21.274Z,26.34
2022-08-12T08:57:20.242Z,26.36
2022-08-12T08:58:20.230Z,26.36
2022-08-12T08:59:20.220Z,26.36
2022-08-12T09:00:20.211Z,26.39
2022-08-12T09:01:20.248Z,26.44
2022-08-12T09:02:20.247Z,26.47
2022-08-12T09:05:09.006Z,26.50
2022-08-12T09:05:13.644Z,26.39
2022-08-12T09:05:24.913Z,26.39
2022-08-12T09:06:20.325Z,26.41
2022-08-12T09:07:43.860Z,26.47
2022-08-12T09:08:26.757Z,26.50
2022-08-12T09:09:21.100Z,26.53
2022-08-12T09:10:30.654Z,26.56
2022-08-12T09:12:11.078Z,26.56
2022-08-12T09:12:27.522Z,26.56
2022-08-12T09:13:23.845Z,26.59
2022-08-12T09:14:29.533Z,26.65
2022-08-12T09:15:21.015Z,26.68
2022-08-12T09:16:20.656Z,26.68
2022-08-12T09:17:21.306Z,26.69
2022-08-12T09:18:26.647Z,26.73
2022-08-12T09:19:27.324Z,26.73
2022-08-12T09:20:20.962Z,26.76
2022-08-12T09:21:20.981Z,26.73
2022-08-12T09:22:20.845Z,26.72
2022-08-12T09:24:20.898Z,26.83
2022-08-12T09:25:25.814Z,26.83
2022-08-12T09:26:20.874Z,26.81
2022-08-12T09:27:21.832Z,26.88
2022-08-12T09:28:21.109Z,26.88
2022-08-12T09:30:10.555Z,26.81
2022-08-12T09:30:41.166Z,26.86
2022-08-12T09:32:03.887Z,26.81
2022-08-12T09:32:57.117Z,26.72
2022-08-12T09:34:27.307Z,26.73
2022-08-12T09:34:28.792Z,26.69
2022-08-12T09:35:22.508Z,26.78
2022-08-12T09:36:31.145Z,26.87
2022-08-12T09:37:22.327Z,26.88
2022-08-12T09:38:29.840Z,26.84
2022-08-12T09:40:06.323Z,26.84
2022-08-12T09:40:57.114Z,26.93
2022-08-12T09:42:35.099Z,26.94
2022-08-12T09:42:40.334Z,26.98
2022-08-12T09:43:21.129Z,27.05
2022-08-12T09:44:38.052Z,27.05
2022-08-12T09:45:23.208Z,27.05
2022-08-12T09:46:25.238Z,27.08
2022-08-12T09:47:20.613Z,26.97
2022-08-12T09:48:21.999Z,26.83
2022-08-12T09:49:19.569Z,26.73
2022-08-12T09:50:20.181Z,26.73
2022-08-12T09:51:22.479Z,26.86
2022-08-12T09:52:20.096Z,27.01
2022-08-12T09:53:29.180Z,27.15
2022-08-12T09:54:32.593Z,27.23
2022-08-12T09:56:05.778Z,27.18
2022-08-12T09:56:56.854Z,27.12
2022-08-12T09:58:45.594Z,27.05
2022-08-12T09:58:59.001Z,27.03
2022-08-12T10:00:14.953Z,27.06
2022-08-12T10:00:29.252Z,27.13
2022-08-12T10:01:23.318Z,27.08
2022-08-12T10:02:42.066Z,27.05
2022-08-12T10:03:32.734Z,27.03
2022-08-12T10:04:20.870Z,27.08
2022-08-12T10:05:20.357Z,27.12
2022-08-12T10:06:31.497Z,27.21
2022-08-12T10:07:24.754Z,27.18
2022-08-12T10:08:20.324Z,27.13
2022-08-12T10:09:19.370Z,27.21
2022-08-12T10:10:24.801Z,27.30
2022-08-12T10:11:20.847Z,27.42
2022-08-12T10:12:43.445Z,27.48
2022-08-12T10:13:34.453Z,27.53
2022-08-12T10:14:20.253Z,27.59
2022-08-12T10:16:02.374Z,27.53
2022-08-12T10:16:22.385Z,27.48
2022-08-12T10:17:19.212Z,27.40
2022-08-12T10:18:19.192Z,27.38
2022-08-12T10:19:19.181Z,27.34
2022-08-12T10:20:19.213Z,27.33
2022-08-12T10:21:19.174Z,27.35
2022-08-12T10:22:39.756Z,27.39
2022-08-12T10:23:20.232Z,27.48
2022-08-12T10:24:20.568Z,27.61
2022-08-12T10:25:19.158Z,27.59
2022-08-12T10:26:37.279Z,27.63
2022-08-12T10:27:20.098Z,27.63
2022-08-12T10:28:25.135Z,27.55
2022-08-12T10:30:37.612Z,27.58
2022-08-12T10:30:39.625Z,27.62
2022-08-12T10:31:20.022Z,27.50
2022-08-12T10:32:44.686Z,27.30
2022-08-12T10:33:30.605Z,27.33
2022-08-12T10:34:25.879Z,27.35
2022-08-12T10:35:19.981Z,27.45
2022-08-12T10:36:18.971Z,27.55
2022-08-12T10:38:36.336Z,27.53
2022-08-12T10:38:38.265Z,27.59
2022-08-12T10:40:08.153Z,27.62
2022-08-12T10:40:22.893Z,27.68
2022-08-12T10:41:21.140Z,27.71
2022-08-12T10:42:29.625Z,27.74
2022-08-12T10:43:20.367Z,27.83
2022-08-12T10:44:18.869Z,27.90
2022-08-12T10:45:18.862Z,27.80
2022-08-12T10:46:20.978Z,27.66
2022-08-12T10:47:25.653Z,27.52
2022-08-12T10:48:27.110Z,27.48
2022-08-12T10:50:02.605Z,27.45
2022-08-12T10:50:29.469Z,27.42
2022-08-12T10:52:04.293Z,27.38
2022-08-12T10:52:33.780Z,27.45
2022-08-12T10:53:20.035Z,27.62
2022-08-12T10:54:18.742Z,27.71
2022-08-12T10:55:18.895Z,27.84
2022-08-12T10:56:18.759Z,27.88
2022-08-12T10:58:12.783Z,27.88
2022-08-12T10:58:28.173Z,27.96
2022-08-12T10:59:19.675Z,28.14
2022-08-12T11:00:33.935Z,28.27
2022-08-12T11:01:48.857Z,28.30
2022-08-12T11:04:28.592Z,28.23
2022-08-12T11:04:35.857Z,27.87
2022-08-12T11:04:35.975Z,28.08
2022-08-12T11:07:03.079Z,27.68
2022-08-12T11:07:07.468Z,27.49
2022-08-12T11:08:35.973Z,27.33
2022-08-12T11:08:37.662Z,27.24
2022-08-12T11:09:41.760Z,27.15
2022-08-12T11:10:19.633Z,27.11
2022-08-12T11:12:35.832Z,27.23
2022-08-12T11:12:55.504Z,27.40
2022-08-12T11:13:19.534Z,27.62
2022-08-12T11:14:50.057Z,27.81
2022-08-12T11:15:21.275Z,27.93
2022-08-12T11:16:22.609Z,28.05
2022-08-12T11:17:43.673Z,28.20
2022-08-12T11:18:19.458Z,28.32
2022-08-12T11:19:18.503Z,28.43
2022-08-12T11:20:18.438Z,28.48
2022-08-12T11:21:18.413Z,28.54
2022-08-12T11:22:18.404Z,28.57
2022-08-12T11:23:25.323Z,28.64
2022-08-12T11:24:30.649Z,28.64
2022-08-12T11:25:19.342Z,28.48
2022-08-12T11:26:18.363Z,28.36
2022-08-12T11:27:18.325Z,28.21
2022-08-12T11:28:33.390Z,28.25
2022-08-12T11:29:22.200Z,28.35
2022-08-12T11:30:31.193Z,28.24
2022-08-12T11:31:19.341Z,28.09
2022-08-12T11:32:18.262Z,28.08
2022-08-12T11:33:24.347Z,28.18
2022-08-12T11:34:52.903Z,28.33
2022-08-12T11:35:19.212Z,28.36
2022-08-12T11:36:18.184Z,28.43
2022-08-12T11:37:26.130Z,28.51
2022-08-12T11:38:20.420Z,28.58
2022-08-12T11:39:18.155Z,28.64
2022-08-12T11:41:28.044Z,28.92
2022-08-12T11:42:19.102Z,28.97
2022-08-12T11:43:20.420Z,29.03
2022-08-12T11:44:36.145Z,29.07
2022-08-12T11:45:19.074Z,29.05
2022-08-12T11:46:18.466Z,29.17
2022-08-12T11:47:18.043Z,29.27
2022-08-12T11:48:18.034Z,29.42
2022-08-12T11:49:26.859Z,29.41
2022-08-12T11:50:19.882Z,29.33
2022-08-12T11:51:18.088Z,29.30
2022-08-12T11:52:53.914Z,29.30
2022-08-12T11:53:56.884Z,29.36
2022-08-12T11:54:18.949Z,29.30
2022-08-12T11:55:17.942Z,29.32
2022-08-12T11:56:18.932Z,29.39
2022-08-12T11:58:07.389Z,29.26
2022-08-12T11:59:16.184Z,29.18
2022-08-12T12:02:00.777Z,29.14
2022-08-12T12:02:21.822Z,29.23
2022-08-12T12:03:17.888Z,29.25
2022-08-12T12:04:28.948Z,29.26
2022-08-12T12:05:18.810Z,29.23
2022-08-12T12:06:17.921Z,29.15
2022-08-12T12:07:17.782Z,28.87
2022-08-12T12:08:39.093Z,28.72
2022-08-12T12:09:18.762Z,28.65
2022-08-12T12:10:17.746Z,28.79
2022-08-12T12:11:17.762Z,28.72
2022-08-12T12:12:17.741Z,28.74
2022-08-12T12:13:23.305Z,28.80
2022-08-12T12:14:18.730Z,28.87
2022-08-12T12:15:25.182Z,28.88
2022-08-12T12:16:18.684Z,28.85
2022-08-12T12:17:17.694Z,28.88
2022-08-12T12:18:17.671Z,28.69
2022-08-12T12:19:17.653Z,28.46
2022-08-12T12:20:17.633Z,28.36
2022-08-12T12:21:17.633Z,28.36
2022-08-12T12:22:23.577Z,28.48
2022-08-12T12:23:29.049Z,28.58
2022-08-12T12:24:21.150Z,28.62
2022-08-12T12:25:19.782Z,28.52
2022-08-12T12:26:34.915Z,28.51
2022-08-12T12:27:19.248Z,28.55
2022-08-12T12:28:37.295Z,28.69
2022-08-12T12:30:18.438Z,28.76
2022-08-12T12:30:30.067Z,28.79
2022-08-12T12:32:11.681Z,28.85
2022-08-12T12:32:18.804Z,28.91
2022-08-12T12:33:17.750Z,29.00
2022-08-12T12:34:30.225Z,29.07
2022-08-12T12:36:18.721Z,29.03
2022-08-12T12:36:24.023Z,29.05
2022-08-12T12:37:59.053Z,28.82
2022-08-12T12:38:18.414Z,28.87
2022-08-12T12:39:17.614Z,28.92
2022-08-12T12:40:17.420Z,28.95
2022-08-12T12:41:17.377Z,29.00
2022-08-12T12:42:42.866Z,28.95
2022-08-12T12:43:28.652Z,28.88
2022-08-12T12:44:25.885Z,28.87
2022-08-12T12:45:19.807Z,28.95
2022-08-12T12:46:17.306Z,29.10
2022-08-12T12:47:29.250Z,29.25
2022-08-12T12:48:18.335Z,29.27
2022-08-12T12:49:17.276Z,29.27
2022-08-12T12:50:35.644Z,29.41
2022-08-12T12:51:22.280Z,29.36
2022-08-12T12:52:21.166Z,29.32
2022-08-12T12:54:06.919Z,29.08
2022-08-12T12:54:18.892Z,28.82
2022-08-12T12:55:17.217Z,28.67
2022-08-12T12:56:17.231Z,28.60